Dati Storici

Data ora Umidita' aria (%) Temperatura aria (°C) Rad globale (W/m²) Gonioanemometro (°) Tacoanemometro (m/s) Pioggia (mm)
18-10-2012 04:40 92.7 % 11.746 2.249 329.528 0.102 0
18-10-2012 04:30 92.8 % 11.846 1.928 327.166 0.238 0
18-10-2012 04:20 93.1 % 12.079 2.005 1.207 0.554 0
18-10-2012 04:10 92.8 % 12.003 2.005 277.517 0.624 0
18-10-2012 04:00 92.5 % 11.901 2.088 299.147 0.425 0
18-10-2012 03:50 91.4 % 11.719 2 243.301 -0.015 0
18-10-2012 03:40 90.4 % 11.658 2.141 318.755 -0.016 0
18-10-2012 03:30 90.6 % 12 1.871 320.486 -0.015 0
18-10-2012 03:20 91 % 12.336 2.063 1.144 -0.013 0
18-10-2012 03:10 91.3 % 12.525 1.717 330.784 0.515 0
18-10-2012 03:00 91 % 12.444 1.525 315.506 0.303 0
18-10-2012 02:50 91.3 % 12.58 2.025 306.1 0.442 0
18-10-2012 02:40 90.8 % 12.439 1.845 327.888 0.535 0
18-10-2012 02:30 90.6 % 12.566 2.025 338.766 0.069 0
18-10-2012 02:20 91 % 12.725 2.307 9.947 -0.014 0
18-10-2012 02:10 91 % 12.774 2.243 25.152 -0 0
18-10-2012 02:00 90.5 % 12.575 1.782 338.021 0.138 0
18-10-2012 01:50 90.4 % 12.705 1.576 1.095 0.331 0
18-10-2012 01:40 89 % 12.595 1.807 294.656 -0.019 0
18-10-2012 01:30 89.3 % 12.814 1.73 323.9 0.591 0

I dati sono presentati in modo automatico a scopo informativo. In seguito a verifica i dati possono subire modifiche o essere invalidati e non riportati negli archivi definitivi.